Stevens Point, WI

9:56 AM CST on December 04, 2016 (GMT -0600)
2nd Street North | | Change Station
Active Advisory: Winter Weather Advisory

Elev 1115 ft 44.54 °N, 89.59 °W | Updated 4 minutes ago

Overcast
Overcast
30.6 °F
Feels Like 31 °F
N
0.6
Wind Variable Wind from West
Gusts 2.5 mph

Today
High -- | Low -- °F
--% Chance of Precip.
Yesterday
High -- | Low -- °F
Precip. -- in
Pressure 30.04 in
Visibility 1.2 miles
Clouds Overcast 600 ft
Windchill 31 °F
Dew Point 27 °F
Humidity 86%
Rainfall 0.00 in
Snow Depth Not available.
7:18 AM 4:18 PM
Waxing Crescent, 23% visible
METAR KSTE 041535Z AUTO 13005KT 1 1/4SM UP OVC006 M02/M02 A3004 RMK AO2 P0001 T10231024
Pressure 30.04 in
Visibility 1.2 miles
Clouds Overcast 600 ft
Windchill 31 °F
Dew Point 27 °F
Humidity 86%
Rainfall 0.00 in
Snow Depth Not available.
7:18 AM 4:18 PM
Waxing Crescent, 23% visible
METAR KSTE 041535Z AUTO 13005KT 1 1/4SM UP OVC006 M02/M02 A3004 RMK AO2 P0001 T10231024

10-Day Weather Forecast

Almanac

Astronomy

Dec. 04, 2016 Rise Set
Actual Time
Civil Twilight
Nautical Twilight
Astronomical Twilight
Moon
Length of Visible Light
Length of Day
Tomorrow will be .
, % of the Moon is Illuminated

Today's Extremes

State Highs State Lows

Community

WunderPhotos

Upload Photos

1,955,609 photos uploaded!

WunderBlog® & News

Nearby

Air Quality

  Air Quality AQ Index Pollutant
Not available.

Snow Depth

Station Depth Elevation

Earthquake Activity

City Distance Mag. Time & Date
Minimum magnitude displayed is 2.5.

Coastal Water Temperatures

Place Temperature

Stations

Nearby Weather Stations

Station Location Temp. Windchill Dew Point Humidity Wind Precip. Elev Updated Type
                   

Watches & Warnings

Winter Weather Advisory
Issued: 3:17 AM CST Dec. 4, 2016 – National Weather Service

... Winter Weather Advisory remains in effect until 6 PM CST this
evening...

* snow will arrive early this morning and continue through late
afternoon.

* Snow accumulations should be in the 2 to 4 inch range.

* The snow will cause roads to become snow covered and slippery,
making travel hazardous. Air travel delays are also possible.

Precautionary/preparedness actions...

A Winter Weather Advisory for snow means periods of snow will
cause primarily travel difficulties. Be prepared for snow covered
roads and limited visibilities... and use extra caution while
driving. The latest Wisconsin Road conditions can be obtained by
calling 511.